Airfield :
LOGIN :

Register | Disclaimer

   EN    FR    IT 

 










Legend :    VFR   Marginal VFR   IFR   Intensive IFR   Very Intensive IFR
Visi :
Ceiling :
>= 8 km
>= 3000ft
5 to 8 km
1000 to 3000 ft
1500m to 5 km
500 to 1000 ft
800 to 1500m
200 to 500 ft
< 800m
< 200 ft
Symbols :   Thunderstorms  Fog  Heavy snow  Heavy precipitations  Wind > 20 kt
SIGMETs :     Misc.  Thunderstorms  Icing  Turbulence  Mountain Waves  Volcanic Ashes






- Airport Elevation : 308 ft
- IATA code : POZ


EPPO - Poznan-Lawica

CURRENT METAR :
  • 150500Z 09003KT 7000 NSC 12/11 Q1011

EXPIRED METARs :
  • 150430Z 11005KT 8000 NSC 12/11 Q1012
  • 150400Z 11006KT 7000 NSC 12/11 Q1012
  • 150330Z 11007KT 8000 NSC 12/12 Q1012
  • 150300Z 11008KT 8000 NSC 13/12 Q1012
  • 150230Z 11007KT 9000 NSC 13/12 Q1012

TAF TAF EPPO
Valid from the 15 at 00:00 until the 16 at 00:00 UTC


142330Z 1500/1524 10006KT CAVOK
PROB30 1500/1506 1200 BR BKN004
BECMG 1506/1509 17010KT



MET'MAP, your aeronautical weather chart ! - Copyright ORBIFLY December 2007 - Disclaimer

ORBIFLY MET'MAP TEAM :

Programming & Development : Alexandra Zaïnal
Concept & Development : Baudouin d'Aumeries
Co-Development & Prog : Marc-Olivier Méhu
Technical & hardware support : Manuel Goepfert

Contact : metmap@orbifly.com




SOURCES & CREDITS :

   NOAA